Greenville Spartanburg International Airport Greenville US
ICAO: KGSP
IATA: GSP
Category: Large
Scheduled Services: Yes

Elevation: 964 ft
TransAlt. 18000 ft.

Airport Communications:
GREER APP/DEP:120.6
ATIS:134.25
CTAF:120.1
GREER GND:121.9
GREER TWR:120.1
UNICOM:122.95

KGSP Zoom In..

Runways:

(A) RW 04 length 11001 ft width 150 ft
ILS 109.30 / hdg 38

(B) RW 22 length 11001 ft width 150 ft
ILS 110.70 / hdg 218

Location; KGSP
Day. 29 / Time. 14.53 Zulu
* Altimeter: 30.17
* Temperature: 10° c. 50°f.
* Wind from: 030° Speed 06 kn.
Dewpoint: 04° c.
Visibility: 10 Statute Miles.
Clouds: Few 5000 ft.

KGSP 291453Z 03006KT 10SM FEW050 10/04 A3017 RMK AO2 SLP216 T01000044 51011

Going to: --> -->


Wind From 030°
Speed 06 kn.

 
 
jpsmedia worldairports.se 2020   terms of use